sensor_id;sensor_type;location;lat;lon;timestamp;pressure;altitude;pressure_sealevel;temperature;humidity
41334;BME280;27078;46.428;6.256;2024-02-15T00:01:21;97074.47;;;4.54;71.21
41334;BME280;27078;46.428;6.256;2024-02-15T00:03:46;97069.81;;;4.55;71.30
41334;BME280;27078;46.428;6.256;2024-02-15T00:06:11;97075.00;;;4.51;71.25
41334;BME280;27078;46.428;6.256;2024-02-15T00:08:37;97068.25;;;4.42;71.44
41334;BME280;27078;46.428;6.256;2024-02-15T00:11:02;97070.47;;;4.40;71.40
41334;BME280;27078;46.428;6.256;2024-02-15T00:13:28;97067.94;;;4.38;71.12
41334;BME280;27078;46.428;6.256;2024-02-15T00:15:53;97056.75;;;4.45;70.67
41334;BME280;27078;46.428;6.256;2024-02-15T00:18:18;97054.66;;;4.52;70.87
41334;BME280;27078;46.428;6.256;2024-02-15T00:20:44;97059.13;;;4.58;70.40
41334;BME280;27078;46.428;6.256;2024-02-15T00:23:09;97054.22;;;4.60;70.34
41334;BME280;27078;46.428;6.256;2024-02-15T00:25:34;97056.47;;;4.63;70.45
41334;BME280;27078;46.428;6.256;2024-02-15T00:28:01;97067.13;;;4.60;70.29
41334;BME280;27078;46.428;6.256;2024-02-15T00:30:27;97058.88;;;4.60;70.27
41334;BME280;27078;46.428;6.256;2024-02-15T00:32:53;97061.13;;;4.63;70.01
41334;BME280;27078;46.428;6.256;2024-02-15T00:35:18;97061.38;;;4.61;70.42
41334;BME280;27078;46.428;6.256;2024-02-15T00:37:44;97061.38;;;4.61;70.31
41334;BME280;27078;46.428;6.256;2024-02-15T00:40:10;97061.97;;;4.63;70.28
41334;BME280;27078;46.428;6.256;2024-02-15T00:42:36;97066.34;;;4.64;70.33
41334;BME280;27078;46.428;6.256;2024-02-15T00:45:03;97065.78;;;4.62;70.37
41334;BME280;27078;46.428;6.256;2024-02-15T00:47:28;97066.31;;;4.59;70.03
41334;BME280;27078;46.428;6.256;2024-02-15T00:49:54;97067.97;;;4.60;70.40
41334;BME280;27078;46.428;6.256;2024-02-15T00:52:19;97061.38;;;4.61;70.28
41334;BME280;27078;46.428;6.256;2024-02-15T00:54:45;97053.91;;;4.57;70.03
41334;BME280;27078;46.428;6.256;2024-02-15T00:57:11;97064.59;;;4.53;70.27
41334;BME280;27078;46.428;6.256;2024-02-15T00:59:36;97059.31;;;4.52;69.73
41334;BME280;27078;46.428;6.256;2024-02-15T01:02:02;97058.50;;;4.51;69.68
41334;BME280;27078;46.428;6.256;2024-02-15T01:04:28;97053.78;;;4.46;69.85
41334;BME280;27078;46.428;6.256;2024-02-15T01:06:54;97061.19;;;4.46;70.03
41334;BME280;27078;46.428;6.256;2024-02-15T01:09:21;97066.88;;;4.39;69.74
41334;BME280;27078;46.428;6.256;2024-02-15T01:11:46;97066.75;;;4.29;70.02
41334;BME280;27078;46.428;6.256;2024-02-15T01:14:13;97055.94;;;4.22;70.14
41334;BME280;27078;46.428;6.256;2024-02-15T01:16:38;97058.19;;;4.25;69.32
41334;BME280;27078;46.428;6.256;2024-02-15T01:19:03;97058.50;;;4.29;69.68
41334;BME280;27078;46.428;6.256;2024-02-15T01:21:30;97055.75;;;4.29;69.62
41334;BME280;27078;46.428;6.256;2024-02-15T01:23:55;97060.00;;;4.20;70.24
41334;BME280;27078;46.428;6.256;2024-02-15T01:26:21;97067.34;;;4.14;70.39
41334;BME280;27078;46.428;6.256;2024-02-15T01:28:46;97058.47;;;4.07;70.59
41334;BME280;27078;46.428;6.256;2024-02-15T01:31:11;97055.97;;;4.06;70.86
41334;BME280;27078;46.428;6.256;2024-02-15T01:33:38;97050.72;;;4.04;70.70
41334;BME280;27078;46.428;6.256;2024-02-15T01:36:04;97056.16;;;3.99;70.57
41334;BME280;27078;46.428;6.256;2024-02-15T01:38:29;97056.88;;;3.94;70.84
41334;BME280;27078;46.428;6.256;2024-02-15T01:40:55;97064.06;;;3.95;70.20
41334;BME280;27078;46.428;6.256;2024-02-15T01:43:20;97056.34;;;3.92;70.65
41334;BME280;27078;46.428;6.256;2024-02-15T01:45:45;97059.31;;;3.91;70.83
41334;BME280;27078;46.428;6.256;2024-02-15T01:48:13;97056.75;;;3.84;71.37
41334;BME280;27078;46.428;6.256;2024-02-15T01:50:39;97046.84;;;3.83;70.88
41334;BME280;27078;46.428;6.256;2024-02-15T01:53:07;97044.38;;;3.82;71.15
41334;BME280;27078;46.428;6.256;2024-02-15T01:55:33;97045.69;;;3.79;71.18
41334;BME280;27078;46.428;6.256;2024-02-15T01:58:00;97049.00;;;3.81;71.26
41334;BME280;27078;46.428;6.256;2024-02-15T02:00:27;97048.50;;;3.84;70.98
41334;BME280;27078;46.428;6.256;2024-02-15T02:02:53;97048.31;;;3.91;70.86
41334;BME280;27078;46.428;6.256;2024-02-15T02:05:19;97041.81;;;3.97;70.48
41334;BME280;27078;46.428;6.256;2024-02-15T02:07:45;97035.84;;;4.00;70.40
41334;BME280;27078;46.428;6.256;2024-02-15T02:10:11;97024.84;;;4.00;70.44
41334;BME280;27078;46.428;6.256;2024-02-15T02:12:40;97019.84;;;3.97;70.46
41334;BME280;27078;46.428;6.256;2024-02-15T02:15:07;97034.69;;;3.96;70.56
41334;BME280;27078;46.428;6.256;2024-02-15T02:17:33;97024.34;;;4.03;70.27
41334;BME280;27078;46.428;6.256;2024-02-15T02:19:59;97025.31;;;4.14;69.80
41334;BME280;27078;46.428;6.256;2024-02-15T02:22:24;97018.47;;;4.16;69.59
41334;BME280;27078;46.428;6.256;2024-02-15T02:25:07;97016.81;;;4.15;69.63
41334;BME280;27078;46.428;6.256;2024-02-15T02:27:36;97017.34;;;4.12;69.81
41334;BME280;27078;46.428;6.256;2024-02-15T02:30:05;97018.97;;;4.13;69.46
41334;BME280;27078;46.428;6.256;2024-02-15T02:32:40;97016.56;;;4.17;69.45
41334;BME280;27078;46.428;6.256;2024-02-15T02:35:06;97012.47;;;4.19;69.37
41334;BME280;27078;46.428;6.256;2024-02-15T02:37:32;97014.41;;;4.19;69.29
41334;BME280;27078;46.428;6.256;2024-02-15T02:40:02;97015.47;;;4.18;69.21
41334;BME280;27078;46.428;6.256;2024-02-15T02:42:28;97013.50;;;4.13;69.70
41334;BME280;27078;46.428;6.256;2024-02-15T02:44:53;97019.34;;;4.00;70.36
41334;BME280;27078;46.428;6.256;2024-02-15T02:47:19;97022.59;;;3.97;69.81
41334;BME280;27078;46.428;6.256;2024-02-15T02:49:44;97018.53;;;3.99;70.12
41334;BME280;27078;46.428;6.256;2024-02-15T02:52:09;97025.03;;;3.93;70.45
41334;BME280;27078;46.428;6.256;2024-02-15T02:54:35;97022.03;;;3.95;70.21
41334;BME280;27078;46.428;6.256;2024-02-15T02:57:00;97022.03;;;3.95;70.23
41334;BME280;27078;46.428;6.256;2024-02-15T02:59:26;97028.59;;;3.94;70.20
41334;BME280;27078;46.428;6.256;2024-02-15T03:01:51;97029.69;;;3.93;70.15
41334;BME280;27078;46.428;6.256;2024-02-15T03:04:16;97029.94;;;3.91;70.49
41334;BME280;27078;46.428;6.256;2024-02-15T03:06:43;97028.53;;;3.89;70.41
41334;BME280;27078;46.428;6.256;2024-02-15T03:09:08;97027.13;;;3.86;70.25
41334;BME280;27078;46.428;6.256;2024-02-15T03:11:35;97021.88;;;3.85;70.40
41334;BME280;27078;46.428;6.256;2024-02-15T03:14:01;97035.38;;;3.86;69.82
41334;BME280;27078;46.428;6.256;2024-02-15T03:16:30;97033.22;;;3.88;69.86
41334;BME280;27078;46.428;6.256;2024-02-15T03:18:55;97036.44;;;3.85;69.24
41334;BME280;27078;46.428;6.256;2024-02-15T03:21:20;97026.47;;;3.79;69.93
41334;BME280;27078;46.428;6.256;2024-02-15T03:23:46;97032.97;;;3.73;70.11
41334;BME280;27078;46.428;6.256;2024-02-15T03:26:11;97026.66;;;3.72;70.18
41334;BME280;27078;46.428;6.256;2024-02-15T03:28:37;97032.13;;;3.72;70.53
41334;BME280;27078;46.428;6.256;2024-02-15T03:31:03;97028.31;;;3.73;70.04
41334;BME280;27078;46.428;6.256;2024-02-15T03:33:28;97026.38;;;3.74;70.22
41334;BME280;27078;46.428;6.256;2024-02-15T03:35:59;97029.63;;;3.71;70.24
41334;BME280;27078;46.428;6.256;2024-02-15T03:38:29;97025.22;;;3.70;70.50
41334;BME280;27078;46.428;6.256;2024-02-15T03:40:55;97018.09;;;3.69;70.60
41334;BME280;27078;46.428;6.256;2024-02-15T03:43:21;97028.25;;;3.68;70.40
41334;BME280;27078;46.428;6.256;2024-02-15T03:45:49;97032.63;;;3.69;70.30
41334;BME280;27078;46.428;6.256;2024-02-15T03:48:14;97027.75;;;3.71;70.37
41334;BME280;27078;46.428;6.256;2024-02-15T03:50:39;97029.63;;;3.71;70.44
41334;BME280;27078;46.428;6.256;2024-02-15T03:53:05;97023.91;;;3.72;70.54
41334;BME280;27078;46.428;6.256;2024-02-15T03:55:31;97023.72;;;3.79;70.35
41334;BME280;27078;46.428;6.256;2024-02-15T03:57:58;97019.56;;;3.76;70.80
41334;BME280;27078;46.428;6.256;2024-02-15T04:00:24;97017.00;;;3.70;70.81
41334;BME280;27078;46.428;6.256;2024-02-15T04:02:50;97022.97;;;3.67;70.76
41334;BME280;27078;46.428;6.256;2024-02-15T04:05:16;97029.25;;;3.62;70.99
41334;BME280;27078;46.428;6.256;2024-02-15T04:07:43;97031.38;;;3.60;70.88
41334;BME280;27078;46.428;6.256;2024-02-15T04:10:09;97036.81;;;3.55;71.08
41334;BME280;27078;46.428;6.256;2024-02-15T04:12:34;97022.25;;;3.54;71.19
41334;BME280;27078;46.428;6.256;2024-02-15T04:15:00;97023.41;;;3.59;71.30
41334;BME280;27078;46.428;6.256;2024-02-15T04:17:30;97028.59;;;3.55;71.31
41334;BME280;27078;46.428;6.256;2024-02-15T04:19:57;97026.06;;;3.53;71.44
41334;BME280;27078;46.428;6.256;2024-02-15T04:22:23;97023.00;;;3.50;71.46
41334;BME280;27078;46.428;6.256;2024-02-15T04:24:48;97026.50;;;3.45;71.34
41334;BME280;27078;46.428;6.256;2024-02-15T04:27:14;97016.78;;;3.38;71.68
41334;BME280;27078;46.428;6.256;2024-02-15T04:29:40;97010.69;;;3.36;71.88
41334;BME280;27078;46.428;6.256;2024-02-15T04:32:10;97011.78;;;3.35;72.26
41334;BME280;27078;46.428;6.256;2024-02-15T04:34:39;97017.50;;;3.33;72.20
41334;BME280;27078;46.428;6.256;2024-02-15T04:37:05;97017.28;;;3.35;71.88
41334;BME280;27078;46.428;6.256;2024-02-15T04:39:36;97018.50;;;3.27;71.98
41334;BME280;27078;46.428;6.256;2024-02-15T04:42:04;97023.09;;;3.21;72.37
41334;BME280;27078;46.428;6.256;2024-02-15T04:44:38;97020.25;;;3.16;72.21
41334;BME280;27078;46.428;6.256;2024-02-15T04:47:03;97015.03;;;3.15;72.63
41334;BME280;27078;46.428;6.256;2024-02-15T04:49:32;97007.63;;;3.15;72.62
41334;BME280;27078;46.428;6.256;2024-02-15T04:51:58;96996.97;;;3.19;72.63
41334;BME280;27078;46.428;6.256;2024-02-15T04:54:24;96996.31;;;3.28;72.71
41334;BME280;27078;46.428;6.256;2024-02-15T04:56:49;96996.97;;;3.36;72.44
41334;BME280;27078;46.428;6.256;2024-02-15T04:59:19;96997.63;;;3.43;71.98
41334;BME280;27078;46.428;6.256;2024-02-15T05:01:47;96994.47;;;3.51;71.60
41334;BME280;27078;46.428;6.256;2024-02-15T05:04:12;96995.97;;;3.59;71.10
41334;BME280;27078;46.428;6.256;2024-02-15T05:06:40;97000.31;;;3.54;70.80
41334;BME280;27078;46.428;6.256;2024-02-15T05:09:06;96997.78;;;3.53;71.25
41334;BME280;27078;46.428;6.256;2024-02-15T05:11:39;96991.22;;;3.54;71.27
41334;BME280;27078;46.428;6.256;2024-02-15T05:14:11;96993.97;;;3.54;71.39
41334;BME280;27078;46.428;6.256;2024-02-15T05:16:36;96993.13;;;3.53;71.15
41334;BME280;27078;46.428;6.256;2024-02-15T05:19:08;96996.13;;;3.52;71.82
41334;BME280;27078;46.428;6.256;2024-02-15T05:21:34;96984.06;;;3.53;71.33
41334;BME280;27078;46.428;6.256;2024-02-15T05:23:59;96987.09;;;3.51;71.85
41334;BME280;27078;46.428;6.256;2024-02-15T05:26:24;96993.63;;;3.50;72.04
41334;BME280;27078;46.428;6.256;2024-02-15T05:28:50;96990.66;;;3.52;72.32
41334;BME280;27078;46.428;6.256;2024-02-15T05:31:18;96988.47;;;3.54;72.42
41334;BME280;27078;46.428;6.256;2024-02-15T05:33:46;96986.91;;;3.58;72.27
41334;BME280;27078;46.428;6.256;2024-02-15T05:36:19;96989.16;;;3.61;71.91
41334;BME280;27078;46.428;6.256;2024-02-15T05:38:46;96974.16;;;3.69;71.49
41334;BME280;27078;46.428;6.256;2024-02-15T05:41:12;96976.41;;;3.72;71.71
41334;BME280;27078;46.428;6.256;2024-02-15T05:43:38;96975.56;;;3.71;71.46
41334;BME280;27078;46.428;6.256;2024-02-15T05:46:04;96972.84;;;3.71;71.52
41334;BME280;27078;46.428;6.256;2024-02-15T05:48:31;96971.75;;;3.72;71.82
41334;BME280;27078;46.428;6.256;2024-02-15T05:51:00;96958.84;;;3.73;71.33
41334;BME280;27078;46.428;6.256;2024-02-15T05:53:25;96958.56;;;3.74;71.35
41334;BME280;27078;46.428;6.256;2024-02-15T05:55:51;96961.31;;;3.74;71.32
41334;BME280;27078;46.428;6.256;2024-02-15T05:58:17;96963.81;;;3.76;71.31
41334;BME280;27078;46.428;6.256;2024-02-15T06:00:42;96964.16;;;3.79;71.33
41334;BME280;27078;46.428;6.256;2024-02-15T06:03:10;96954.31;;;3.84;71.35
41334;BME280;27078;46.428;6.256;2024-02-15T06:05:36;96950.47;;;3.85;71.06
41334;BME280;27078;46.428;6.256;2024-02-15T06:08:02;96943.91;;;3.86;71.35
41334;BME280;27078;46.428;6.256;2024-02-15T06:10:27;96949.31;;;3.81;71.80
41334;BME280;27078;46.428;6.256;2024-02-15T06:12:54;96945.19;;;3.78;71.26
41334;BME280;27078;46.428;6.256;2024-02-15T06:15:20;96943.28;;;3.78;71.54
41334;BME280;27078;46.428;6.256;2024-02-15T06:17:46;96939.94;;;3.76;72.20
41334;BME280;27078;46.428;6.256;2024-02-15T06:20:15;96937.19;;;3.76;71.89
41334;BME280;27078;46.428;6.256;2024-02-15T06:22:43;96937.50;;;3.80;71.91
41334;BME280;27078;46.428;6.256;2024-02-15T06:25:08;96937.00;;;3.83;72.06
41334;BME280;27078;46.428;6.256;2024-02-15T06:27:35;96934.00;;;3.85;72.14
41334;BME280;27078;46.428;6.256;2024-02-15T06:30:09;96930.00;;;3.92;72.78
41334;BME280;27078;46.428;6.256;2024-02-15T06:32:53;96925.84;;;3.90;72.34
41334;BME280;27078;46.428;6.256;2024-02-15T06:35:37;96922.81;;;3.91;72.59
41334;BME280;27078;46.428;6.256;2024-02-15T06:38:22;96927.16;;;3.87;72.27
41334;BME280;27078;46.428;6.256;2024-02-15T06:41:06;96919.94;;;3.81;72.50
41334;BME280;27078;46.428;6.256;2024-02-15T06:43:31;96916.88;;;3.77;72.93
41334;BME280;27078;46.428;6.256;2024-02-15T06:45:58;96924.28;;;3.77;73.41
41334;BME280;27078;46.428;6.256;2024-02-15T06:48:23;96927.88;;;3.77;74.07
41334;BME280;27078;46.428;6.256;2024-02-15T06:50:51;96925.19;;;3.83;74.93
41334;BME280;27078;46.428;6.256;2024-02-15T06:53:16;96920.34;;;3.90;74.95
41334;BME280;27078;46.428;6.256;2024-02-15T06:55:44;96920.06;;;3.91;75.59
41334;BME280;27078;46.428;6.256;2024-02-15T06:58:10;96920.94;;;3.92;75.14
41334;BME280;27078;46.428;6.256;2024-02-15T07:00:35;96913.84;;;3.96;74.33
41334;BME280;27078;46.428;6.256;2024-02-15T07:03:00;96913.06;;;4.00;74.17
41334;BME280;27078;46.428;6.256;2024-02-15T07:05:25;96913.69;;;4.08;73.66
41334;BME280;27078;46.428;6.256;2024-02-15T07:07:53;96917.34;;;4.13;73.07
41334;BME280;27078;46.428;6.256;2024-02-15T07:10:20;96915.50;;;4.19;72.96
41334;BME280;27078;46.428;6.256;2024-02-15T07:12:46;96908.13;;;4.24;73.03
41334;BME280;27078;46.428;6.256;2024-02-15T07:15:12;96900.19;;;4.28;72.71
41334;BME280;27078;46.428;6.256;2024-02-15T07:17:37;96903.25;;;4.32;72.66
41334;BME280;27078;46.428;6.256;2024-02-15T07:20:04;96911.47;;;4.32;72.70
41334;BME280;27078;46.428;6.256;2024-02-15T07:22:32;96914.00;;;4.33;73.05
41334;BME280;27078;46.428;6.256;2024-02-15T07:24:58;96910.97;;;4.35;73.12
41334;BME280;27078;46.428;6.256;2024-02-15T07:27:23;96907.47;;;4.39;73.09
41334;BME280;27078;46.428;6.256;2024-02-15T07:29:51;96905.59;;;4.45;72.76
41334;BME280;27078;46.428;6.256;2024-02-15T07:32:16;96898.22;;;4.50;72.92
41334;BME280;27078;46.428;6.256;2024-02-15T07:34:42;96908.44;;;4.55;73.13
41334;BME280;27078;46.428;6.256;2024-02-15T07:37:08;96911.25;;;4.60;73.85
41334;BME280;27078;46.428;6.256;2024-02-15T07:39:34;96912.13;;;4.66;73.09
41334;BME280;27078;46.428;6.256;2024-02-15T07:42:01;96912.97;;;4.66;73.43
41334;BME280;27078;46.428;6.256;2024-02-15T07:44:30;96912.44;;;4.69;73.38
41334;BME280;27078;46.428;6.256;2024-02-15T07:46:58;96916.88;;;4.76;73.46
41334;BME280;27078;46.428;6.256;2024-02-15T07:49:26;96921.91;;;4.84;72.80
41334;BME280;27078;46.428;6.256;2024-02-15T07:51:51;96908.78;;;4.91;72.72
41334;BME280;27078;46.428;6.256;2024-02-15T07:54:21;96911.03;;;4.99;72.43
41334;BME280;27078;46.428;6.256;2024-02-15T07:56:49;96906.72;;;5.08;71.80
41334;BME280;27078;46.428;6.256;2024-02-15T07:59:15;96912.06;;;5.20;71.89
41334;BME280;27078;46.428;6.256;2024-02-15T08:01:44;96907.97;;;5.28;71.55
41334;BME280;27078;46.428;6.256;2024-02-15T08:04:15;96899.78;;;5.38;72.57
41334;BME280;27078;46.428;6.256;2024-02-15T08:06:41;96898.72;;;5.44;70.58
41334;BME280;27078;46.428;6.256;2024-02-15T08:09:07;96899.34;;;5.56;70.68
41334;BME280;27078;46.428;6.256;2024-02-15T08:11:37;96900.50;;;5.60;72.48
41334;BME280;27078;46.428;6.256;2024-02-15T08:14:04;96895.56;;;5.67;72.33
41334;BME280;27078;46.428;6.256;2024-02-15T08:16:33;96897.81;;;5.76;72.83
41334;BME280;27078;46.428;6.256;2024-02-15T08:19:00;96897.31;;;5.89;72.27
41334;BME280;27078;46.428;6.256;2024-02-15T08:21:33;96893.53;;;6.00;71.56
41334;BME280;27078;46.428;6.256;2024-02-15T08:24:00;96891.09;;;6.14;71.66
41334;BME280;27078;46.428;6.256;2024-02-15T08:26:32;96894.75;;;6.25;70.42
41334;BME280;27078;46.428;6.256;2024-02-15T08:28:58;96885.41;;;6.36;70.34
41334;BME280;27078;46.428;6.256;2024-02-15T08:31:23;96889.28;;;6.45;70.63
41334;BME280;27078;46.428;6.256;2024-02-15T08:33:49;96893.72;;;6.56;69.90
41334;BME280;27078;46.428;6.256;2024-02-15T08:36:14;96890.16;;;6.66;69.01
41334;BME280;27078;46.428;6.256;2024-02-15T08:38:39;96878.84;;;6.73;69.04
41334;BME280;27078;46.428;6.256;2024-02-15T08:41:06;96884.38;;;6.83;66.89
41334;BME280;27078;46.428;6.256;2024-02-15T08:43:33;96879.41;;;7.00;66.27
41334;BME280;27078;46.428;6.256;2024-02-15T08:45:59;96880.22;;;7.21;65.21
41334;BME280;27078;46.428;6.256;2024-02-15T08:48:24;96873.31;;;7.39;65.04
41334;BME280;27078;46.428;6.256;2024-02-15T08:50:51;96875.47;;;7.63;65.66
41334;BME280;27078;46.428;6.256;2024-02-15T08:53:16;96867.16;;;7.78;64.21
41334;BME280;27078;46.428;6.256;2024-02-15T08:55:47;96859.94;;;7.87;62.24
41334;BME280;27078;46.428;6.256;2024-02-15T08:58:12;96859.28;;;8.11;63.60
41334;BME280;27078;46.428;6.256;2024-02-15T09:00:38;96846.19;;;8.26;57.27
41334;BME280;27078;46.428;6.256;2024-02-15T09:03:10;96852.50;;;8.47;59.37
41334;BME280;27078;46.428;6.256;2024-02-15T09:05:35;96851.06;;;8.50;58.49
41334;BME280;27078;46.428;6.256;2024-02-15T09:08:00;96856.78;;;8.64;60.76
41334;BME280;27078;46.428;6.256;2024-02-15T09:10:26;96857.81;;;8.78;61.26
41334;BME280;27078;46.428;6.256;2024-02-15T09:12:52;96856.38;;;8.86;60.87
41334;BME280;27078;46.428;6.256;2024-02-15T09:15:17;96847.25;;;8.85;59.51
41334;BME280;27078;46.428;6.256;2024-02-15T09:17:43;96853.59;;;8.86;59.10
41334;BME280;27078;46.428;6.256;2024-02-15T09:20:11;96860.75;;;8.92;60.04
41334;BME280;27078;46.428;6.256;2024-02-15T09:22:50;96856.00;;;8.97;60.32
41334;BME280;27078;46.428;6.256;2024-02-15T09:25:16;96859.63;;;8.93;60.48
41334;BME280;27078;46.428;6.256;2024-02-15T09:27:43;96857.94;;;8.97;61.70
41334;BME280;27078;46.428;6.256;2024-02-15T09:30:09;96854.66;;;8.95;61.12
41334;BME280;27078;46.428;6.256;2024-02-15T09:32:39;96856.53;;;8.99;60.07
41334;BME280;27078;46.428;6.256;2024-02-15T09:35:05;96849.31;;;9.04;60.91
41334;BME280;27078;46.428;6.256;2024-02-15T09:37:37;96853.13;;;9.08;61.03
41334;BME280;27078;46.428;6.256;2024-02-15T09:40:08;96849.22;;;9.14;60.90
41334;BME280;27078;46.428;6.256;2024-02-15T09:42:35;96848.06;;;9.20;60.64
41334;BME280;27078;46.428;6.256;2024-02-15T09:45:02;96853.00;;;9.23;61.02
41334;BME280;27078;46.428;6.256;2024-02-15T09:47:34;96849.03;;;9.34;61.32
41334;BME280;27078;46.428;6.256;2024-02-15T09:50:00;96847.25;;;9.49;60.79
41334;BME280;27078;46.428;6.256;2024-02-15T09:52:26;96835.50;;;9.57;60.83
41334;BME280;27078;46.428;6.256;2024-02-15T09:54:53;96833.91;;;9.51;59.41
41334;BME280;27078;46.428;6.256;2024-02-15T09:57:20;96845.19;;;9.59;59.41
41334;BME280;27078;46.428;6.256;2024-02-15T09:59:45;96836.28;;;9.62;58.85
41334;BME280;27078;46.428;6.256;2024-02-15T10:02:12;96826.78;;;9.68;58.02
41334;BME280;27078;46.428;6.256;2024-02-15T10:04:41;96838.00;;;9.82;58.75
41334;BME280;27078;46.428;6.256;2024-02-15T10:07:07;96834.94;;;9.84;57.98
41334;BME280;27078;46.428;6.256;2024-02-15T10:09:35;96828.91;;;10.01;59.33
41334;BME280;27078;46.428;6.256;2024-02-15T10:12:07;96829.00;;;10.14;58.63
41334;BME280;27078;46.428;6.256;2024-02-15T10:14:34;96818.47;;;10.35;58.03
41334;BME280;27078;46.428;6.256;2024-02-15T10:17:08;96819.91;;;10.52;57.87
41334;BME280;27078;46.428;6.256;2024-02-15T10:19:38;96814.16;;;10.67;57.93
41334;BME280;27078;46.428;6.256;2024-02-15T10:22:08;96813.91;;;10.82;56.72
41334;BME280;27078;46.428;6.256;2024-02-15T10:24:36;96809.00;;;10.93;55.98
41334;BME280;27078;46.428;6.256;2024-02-15T10:27:03;96809.78;;;11.13;56.12
41334;BME280;27078;46.428;6.256;2024-02-15T10:29:29;96798.72;;;11.26;55.53
41334;BME280;27078;46.428;6.256;2024-02-15T10:31:57;96801.94;;;11.47;55.54
41334;BME280;27078;46.428;6.256;2024-02-15T10:34:26;96798.97;;;11.57;54.32
41334;BME280;27078;46.428;6.256;2024-02-15T10:37:10;96794.88;;;11.69;53.41
41334;BME280;27078;46.428;6.256;2024-02-15T10:39:36;96791.78;;;11.70;53.17
41334;BME280;27078;46.428;6.256;2024-02-15T10:42:03;96787.44;;;11.50;52.49
41334;BME280;27078;46.428;6.256;2024-02-15T10:44:28;96787.63;;;11.54;54.08
41334;BME280;27078;46.428;6.256;2024-02-15T10:46:54;96790.94;;;11.42;53.16
41334;BME280;27078;46.428;6.256;2024-02-15T10:49:20;96791.06;;;11.51;54.28
41334;BME280;27078;46.428;6.256;2024-02-15T10:51:50;96783.34;;;11.48;54.43
41334;BME280;27078;46.428;6.256;2024-02-15T10:54:58;96765.94;;;11.56;54.22
41334;BME280;27078;46.428;6.256;2024-02-15T10:57:22;96767.69;;;11.52;53.90
41334;BME280;27078;46.428;6.256;2024-02-15T10:59:56;96763.97;;;11.56;53.53
41334;BME280;27078;46.428;6.256;2024-02-15T11:02:30;96756.25;;;11.53;50.78
41334;BME280;27078;46.428;6.256;2024-02-15T11:05:01;96763.97;;;11.56;52.70
41334;BME280;27078;46.428;6.256;2024-02-15T11:07:29;96757.78;;;11.59;51.82
41334;BME280;27078;46.428;6.256;2024-02-15T11:09:56;96758.81;;;11.64;52.53
41334;BME280;27078;46.428;6.256;2024-02-15T11:12:25;96751.41;;;11.59;52.87
41334;BME280;27078;46.428;6.256;2024-02-15T11:14:52;96751.41;;;11.59;51.49
41334;BME280;27078;46.428;6.256;2024-02-15T11:20:02;96728.84;;;11.47;48.07
41334;BME280;27078;46.428;6.256;2024-02-15T11:22:33;96730.81;;;11.60;47.74
41334;BME280;27078;46.428;6.256;2024-02-15T11:25:03;96718.56;;;11.75;48.01
41334;BME280;27078;46.428;6.256;2024-02-15T11:27:37;96714.13;;;11.88;47.08
41334;BME280;27078;46.428;6.256;2024-02-15T11:30:04;96713.81;;;12.03;48.26
41334;BME280;27078;46.428;6.256;2024-02-15T11:32:49;96709.38;;;12.02;46.66
41334;BME280;27078;46.428;6.256;2024-02-15T11:35:23;96697.75;;;12.00;47.49
41334;BME280;27078;46.428;6.256;2024-02-15T11:42:43;96689.50;;;12.09;47.08
41334;BME280;27078;46.428;6.256;2024-02-15T11:45:09;96680.63;;;12.07;48.07
41334;BME280;27078;46.428;6.256;2024-02-15T11:47:39;96678.47;;;12.03;48.04
41334;BME280;27078;46.428;6.256;2024-02-15T11:50:08;96672.16;;;12.12;47.27
41334;BME280;27078;46.428;6.256;2024-02-15T11:52:38;96668.72;;;12.15;47.69
41334;BME280;27078;46.428;6.256;2024-02-15T11:55:05;96662.28;;;12.28;48.20
41334;BME280;27078;46.428;6.256;2024-02-15T11:57:36;96668.72;;;12.28;47.75
41334;BME280;27078;46.428;6.256;2024-02-15T12:00:03;96662.47;;;12.45;48.16
41334;BME280;27078;46.428;6.256;2024-02-15T12:03:00;96661.69;;;12.53;47.56
41334;BME280;27078;46.428;6.256;2024-02-15T12:05:44;96657.94;;;12.58;46.96
41334;BME280;27078;46.428;6.256;2024-02-15T12:08:28;96655.06;;;12.72;47.18
41334;BME280;27078;46.428;6.256;2024-02-15T12:11:14;96651.63;;;12.97;46.00
41334;BME280;27078;46.428;6.256;2024-02-15T12:13:58;96643.31;;;13.06;45.57
41334;BME280;27078;46.428;6.256;2024-02-15T12:16:42;96641.25;;;13.20;45.59
41334;BME280;27078;46.428;6.256;2024-02-15T12:19:26;96631.91;;;13.16;44.65
41334;BME280;27078;46.428;6.256;2024-02-15T12:21:52;96637.94;;;13.18;44.58
41334;BME280;27078;46.428;6.256;2024-02-15T12:24:18;96637.47;;;13.16;44.48
41334;BME280;27078;46.428;6.256;2024-02-15T12:26:46;96636.63;;;13.16;45.63
41334;BME280;27078;46.428;6.256;2024-02-15T12:29:17;96633.19;;;13.19;44.93
41334;BME280;27078;46.428;6.256;2024-02-15T12:31:43;96634.16;;;13.14;44.03
41334;BME280;27078;46.428;6.256;2024-02-15T12:34:09;96633.34;;;13.14;43.73
41334;BME280;27078;46.428;6.256;2024-02-15T12:36:36;96616.75;;;13.09;44.08
41334;BME280;27078;46.428;6.256;2024-02-15T12:39:05;96621.50;;;12.99;43.19
41334;BME280;27078;46.428;6.256;2024-02-15T12:41:40;96611.28;;;12.86;43.27
41334;BME280;27078;46.428;6.256;2024-02-15T12:44:08;96612.00;;;12.69;42.81
41334;BME280;27078;46.428;6.256;2024-02-15T12:46:35;96610.59;;;12.58;44.40
41334;BME280;27078;46.428;6.256;2024-02-15T12:49:09;96616.31;;;12.53;42.25
41334;BME280;27078;46.428;6.256;2024-02-15T12:51:38;96623.94;;;12.39;43.65
41334;BME280;27078;46.428;6.256;2024-02-15T12:54:10;96623.25;;;12.42;44.27
41334;BME280;27078;46.428;6.256;2024-02-15T12:56:36;96623.59;;;12.40;46.19
41334;BME280;27078;46.428;6.256;2024-02-15T12:59:01;96618.28;;;12.52;45.11
41334;BME280;27078;46.428;6.256;2024-02-15T13:01:28;96610.75;;;12.53;44.12
41334;BME280;27078;46.428;6.256;2024-02-15T13:03:54;96607.06;;;12.44;44.80
41334;BME280;27078;46.428;6.256;2024-02-15T13:06:19;96601.66;;;12.39;45.30
41334;BME280;27078;46.428;6.256;2024-02-15T13:08:49;96606.78;;;12.23;45.74
41334;BME280;27078;46.428;6.256;2024-02-15T13:11:14;96604.88;;;12.10;44.49
41334;BME280;27078;46.428;6.256;2024-02-15T13:13:41;96607.00;;;11.90;45.13
41334;BME280;27078;46.428;6.256;2024-02-15T13:16:07;96602.00;;;12.01;46.71
41334;BME280;27078;46.428;6.256;2024-02-15T13:18:33;96598.75;;;11.99;45.78